createdAt,value
2022-10-26T00:00:40.239Z,11.60
2022-10-26T00:03:06.649Z,12.13
2022-10-26T00:05:34.157Z,11.23
2022-10-26T00:08:01.183Z,11.32
2022-10-26T00:10:29.571Z,11.07
2022-10-26T00:12:57.994Z,10.55
2022-10-26T00:15:24.339Z,11.77
2022-10-26T00:17:51.008Z,11.15
2022-10-26T00:20:17.626Z,11.60
2022-10-26T00:22:44.098Z,10.73
2022-10-26T00:25:10.559Z,11.55
2022-10-26T00:27:36.930Z,11.10
2022-10-26T00:30:06.988Z,11.25
2022-10-26T00:32:34.216Z,13.48
2022-10-26T00:35:10.449Z,12.40
2022-10-26T00:37:47.428Z,12.88
2022-10-26T00:40:14.189Z,13.32
2022-10-26T00:42:40.519Z,11.68
2022-10-26T00:45:27.466Z,13.55
2022-10-26T00:47:57.680Z,12.25
2022-10-26T00:50:32.820Z,13.38
2022-10-26T00:53:00.692Z,14.05
2022-10-26T00:55:29.676Z,16.02
2022-10-26T00:57:56.076Z,16.52
2022-10-26T01:00:22.442Z,13.90
2022-10-26T01:02:51.172Z,13.93
2022-10-26T01:05:18.110Z,13.57
2022-10-26T01:07:45.696Z,14.27
2022-10-26T01:10:13.865Z,14.07
2022-10-26T01:12:40.359Z,13.60
2022-10-26T01:15:07.184Z,12.25
2022-10-26T01:17:57.704Z,12.75
2022-10-26T01:20:26.935Z,13.27
2022-10-26T01:23:14.786Z,12.50
2022-10-26T01:25:48.940Z,12.15
2022-10-26T01:28:33.243Z,12.63
2022-10-26T01:31:01.493Z,10.60
2022-10-26T01:33:46.860Z,11.75
2022-10-26T01:36:18.474Z,10.48
2022-10-26T01:39:00.080Z,13.68
2022-10-26T01:41:31.017Z,12.13
2022-10-26T01:44:02.908Z,11.95
2022-10-26T01:46:40.479Z,13.75
2022-10-26T01:49:10.290Z,12.70
2022-10-26T01:51:38.212Z,14.40
2022-10-26T01:54:04.690Z,22.58
2022-10-26T01:56:32.365Z,16.60
2022-10-26T01:59:34.029Z,22.10
2022-10-26T02:02:15.078Z,17.48
2022-10-26T02:04:58.231Z,16.13
2022-10-26T02:07:33.649Z,16.85
2022-10-26T02:10:09.092Z,17.80
2022-10-26T02:12:50.044Z,19.70
2022-10-26T02:15:16.365Z,23.27
2022-10-26T02:17:48.337Z,18.65
2022-10-26T02:22:48.596Z,13.70
2022-10-26T02:25:22.574Z,12.98
2022-10-26T02:27:52.543Z,12.95
2022-10-26T02:30:19.230Z,12.82
2022-10-26T02:32:48.634Z,13.60
2022-10-26T02:35:16.147Z,22.25
2022-10-26T02:37:44.478Z,16.13
2022-10-26T02:40:13.519Z,15.20
2022-10-26T02:42:43.484Z,14.20
2022-10-26T02:45:11.859Z,26.02
2022-10-26T02:47:38.478Z,15.18
2022-10-26T02:50:05.086Z,14.23
2022-10-26T02:52:59.440Z,14.13
2022-10-26T02:55:28.322Z,14.73
2022-10-26T02:57:57.575Z,16.77
2022-10-26T03:00:24.000Z,17.80
2022-10-26T03:02:55.393Z,19.27
2022-10-26T03:05:27.190Z,13.98
2022-10-26T03:07:54.272Z,12.75
2022-10-26T03:10:21.041Z,10.07
2022-10-26T03:12:47.765Z,15.50
2022-10-26T03:15:15.279Z,9.40
2022-10-26T03:17:41.860Z,7.45
2022-10-26T03:20:08.887Z,8.77
2022-10-26T03:22:35.312Z,11.98
2022-10-26T03:25:01.861Z,8.40
2022-10-26T03:27:28.331Z,22.02
2022-10-26T03:29:54.686Z,26.02
2022-10-26T03:32:21.061Z,13.52
2022-10-26T03:34:47.471Z,7.35
2022-10-26T03:37:14.015Z,5.25
2022-10-26T03:39:40.368Z,5.45
2022-10-26T03:42:06.707Z,4.97
2022-10-26T03:44:33.060Z,6.13
2022-10-26T03:46:59.412Z,5.47
2022-10-26T03:49:25.772Z,4.90
2022-10-26T03:51:52.196Z,8.00
2022-10-26T03:54:18.613Z,5.35
2022-10-26T03:56:44.961Z,5.25
2022-10-26T03:59:11.316Z,4.18
2022-10-26T04:01:37.738Z,6.05
2022-10-26T04:04:04.375Z,5.35
2022-10-26T04:06:30.837Z,4.47
2022-10-26T04:09:02.375Z,4.88
2022-10-26T04:11:29.584Z,4.47
2022-10-26T04:13:56.017Z,4.72
2022-10-26T04:16:22.385Z,4.53
2022-10-26T04:18:48.740Z,6.68
2022-10-26T04:21:15.099Z,5.43
2022-10-26T04:23:42.630Z,5.35
2022-10-26T04:26:08.970Z,5.43
2022-10-26T04:28:35.314Z,4.43
2022-10-26T04:31:01.853Z,5.05
2022-10-26T04:33:28.194Z,4.68
2022-10-26T04:35:59.916Z,4.93
2022-10-26T04:38:26.320Z,4.78
2022-10-26T04:40:52.795Z,8.40
2022-10-26T04:43:19.238Z,6.15
2022-10-26T04:45:45.582Z,6.28
2022-10-26T04:48:13.296Z,5.75
2022-10-26T04:50:40.345Z,5.68
2022-10-26T04:53:07.764Z,3.88
2022-10-26T04:55:34.548Z,4.30
2022-10-26T04:58:01.645Z,4.80
2022-10-26T05:00:30.104Z,4.82
2022-10-26T05:03:03.612Z,4.63
2022-10-26T05:05:33.807Z,4.68
2022-10-26T05:08:00.307Z,4.88
2022-10-26T05:10:26.983Z,5.13
2022-10-26T05:12:54.556Z,5.10
2022-10-26T05:15:21.321Z,4.70
2022-10-26T05:17:48.197Z,4.90
2022-10-26T05:20:15.189Z,4.70
2022-10-26T05:22:41.589Z,5.13
2022-10-26T05:25:08.263Z,4.85
2022-10-26T05:27:34.607Z,4.40
2022-10-26T05:30:01.022Z,5.13
2022-10-26T05:32:27.400Z,4.30
2022-10-26T05:34:53.742Z,4.55
2022-10-26T05:37:20.164Z,4.95
2022-10-26T05:39:46.511Z,4.40
2022-10-26T05:42:12.924Z,4.68
2022-10-26T05:44:39.330Z,5.03
2022-10-26T05:47:06.457Z,4.47
2022-10-26T05:49:32.845Z,4.47
2022-10-26T05:51:59.191Z,4.68
2022-10-26T05:54:25.627Z,4.72
2022-10-26T05:56:52.244Z,4.18
2022-10-26T05:59:20.682Z,4.70
2022-10-26T06:02:04.384Z,4.82
2022-10-26T06:04:38.456Z,4.65
2022-10-26T06:07:14.130Z,4.50
2022-10-26T06:09:41.250Z,4.63
2022-10-26T06:12:08.648Z,5.22
2022-10-26T06:14:35.808Z,5.50
2022-10-26T06:17:11.886Z,5.30
2022-10-26T06:22:47.076Z,5.32
2022-10-26T06:25:19.661Z,4.60
2022-10-26T06:28:01.234Z,5.35
2022-10-26T06:30:27.675Z,4.90
2022-10-26T06:33:01.413Z,4.60
2022-10-26T06:35:40.664Z,4.53
2022-10-26T06:38:13.380Z,4.53
2022-10-26T06:40:41.357Z,4.47
2022-10-26T06:43:25.250Z,5.05
2022-10-26T06:46:17.765Z,4.88
2022-10-26T06:51:31.199Z,4.75
2022-10-26T06:54:06.948Z,5.95
2022-10-26T06:56:33.356Z,8.30
2022-10-26T06:59:07.191Z,8.20
2022-10-26T07:01:33.686Z,6.93
2022-10-26T07:04:00.139Z,8.30
2022-10-26T07:06:26.476Z,10.57
2022-10-26T07:08:52.844Z,8.77
2022-10-26T07:11:19.229Z,6.60
2022-10-26T07:13:45.605Z,6.28
2022-10-26T07:16:11.961Z,6.22
2022-10-26T07:18:38.344Z,6.75
2022-10-26T07:21:04.756Z,6.97
2022-10-26T07:26:02.367Z,5.03
2022-10-26T07:28:28.778Z,5.03
2022-10-26T07:30:56.227Z,4.95
2022-10-26T07:33:22.697Z,5.03
2022-10-26T07:35:49.109Z,4.63
2022-10-26T07:38:15.459Z,5.53
2022-10-26T07:40:41.824Z,5.72
2022-10-26T07:43:08.179Z,6.15
2022-10-26T07:45:35.159Z,6.03
2022-10-26T07:48:01.515Z,8.15
2022-10-26T07:50:28.183Z,6.40
2022-10-26T07:52:54.619Z,5.50
2022-10-26T07:55:21.030Z,5.90
2022-10-26T07:57:49.792Z,5.35
2022-10-26T08:00:21.022Z,5.65
2022-10-26T08:02:47.364Z,5.40
2022-10-26T08:05:13.822Z,4.97
2022-10-26T08:07:42.414Z,5.10
2022-10-26T08:10:09.489Z,4.57
2022-10-26T08:12:35.961Z,5.35
2022-10-26T08:15:02.320Z,4.57
2022-10-26T08:17:29.269Z,5.28
2022-10-26T08:19:55.668Z,4.38
2022-10-26T08:22:22.032Z,4.63
2022-10-26T08:24:48.441Z,4.50
2022-10-26T08:27:15.014Z,5.55
2022-10-26T08:29:41.958Z,5.95
2022-10-26T08:32:08.538Z,5.00
2022-10-26T08:34:34.924Z,5.00
2022-10-26T08:37:01.275Z,4.88
2022-10-26T08:39:29.313Z,4.40
2022-10-26T08:42:01.981Z,5.22
2022-10-26T08:44:37.484Z,5.25
2022-10-26T08:47:14.821Z,5.00
2022-10-26T08:49:46.525Z,4.97
2022-10-26T08:52:16.363Z,5.35
2022-10-26T08:54:47.981Z,7.20
2022-10-26T08:57:27.684Z,3.83
2022-10-26T08:59:58.811Z,5.40
2022-10-26T09:02:25.199Z,2.92
2022-10-26T09:04:52.888Z,2.03
2022-10-26T09:07:45.465Z,2.00
2022-10-26T09:10:35.758Z,2.25
2022-10-26T09:13:35.977Z,1.63
2022-10-26T09:16:13.088Z,1.65
2022-10-26T09:18:53.504Z,1.63
2022-10-26T09:21:38.146Z,2.38
2022-10-26T09:24:11.382Z,2.08
2022-10-26T09:26:55.348Z,1.63
2022-10-26T09:29:26.890Z,1.15
2022-10-26T09:31:54.488Z,1.40
2022-10-26T09:34:27.811Z,1.48
2022-10-26T09:36:58.573Z,1.77
2022-10-26T09:39:39.503Z,1.35
2022-10-26T09:42:14.596Z,1.30
2022-10-26T09:44:45.991Z,1.42
2022-10-26T09:47:38.289Z,1.90
2022-10-26T09:50:27.842Z,1.60
2022-10-26T09:52:54.284Z,1.30
2022-10-26T09:55:23.633Z,1.33
2022-10-26T09:57:56.615Z,1.50
2022-10-26T10:00:25.646Z,1.77
2022-10-26T10:02:54.474Z,1.55
2022-10-26T10:05:45.742Z,1.58
2022-10-26T10:08:25.786Z,1.40
2022-10-26T10:11:07.538Z,1.60
2022-10-26T10:13:36.277Z,1.70
2022-10-26T10:16:08.526Z,1.40
2022-10-26T10:18:36.031Z,1.67
2022-10-26T10:21:03.099Z,1.55
2022-10-26T10:23:51.832Z,1.55
2022-10-26T10:26:18.326Z,1.63
2022-10-26T10:28:56.904Z,1.58
2022-10-26T10:31:28.822Z,1.90
2022-10-26T10:33:55.415Z,1.88
2022-10-26T10:36:23.909Z,1.98
2022-10-26T10:38:52.362Z,1.20
2022-10-26T10:41:24.424Z,1.42
2022-10-26T10:46:21.927Z,1.55
2022-10-26T10:48:52.399Z,1.50
2022-10-26T10:51:20.421Z,1.52
2022-10-26T10:53:51.602Z,1.67
2022-10-26T10:56:27.116Z,1.43
2022-10-26T10:59:02.294Z,1.50
2022-10-26T11:01:35.793Z,1.70
2022-10-26T11:04:06.509Z,1.60
2022-10-26T11:06:36.652Z,1.42
2022-10-26T11:09:07.382Z,2.30
2022-10-26T11:11:40.555Z,1.83
2022-10-26T11:14:22.766Z,2.15
2022-10-26T11:16:56.170Z,1.63
2022-10-26T11:19:26.382Z,1.90
2022-10-26T11:21:56.621Z,2.13
2022-10-26T11:24:30.007Z,2.35
2022-10-26T11:27:15.455Z,1.95
2022-10-26T11:30:00.013Z,1.70
2022-10-26T11:32:34.478Z,1.98
2022-10-26T11:35:20.000Z,2.40
2022-10-26T11:37:52.394Z,2.20
2022-10-26T11:40:40.523Z,2.20
2022-10-26T11:43:14.348Z,2.30
2022-10-26T11:45:44.236Z,1.65
2022-10-26T11:48:20.871Z,1.80
2022-10-26T11:50:53.454Z,1.90
2022-10-26T11:53:24.584Z,2.60
2022-10-26T11:55:54.079Z,2.90
2022-10-26T11:58:24.026Z,2.00
2022-10-26T12:00:54.123Z,2.13
2022-10-26T12:03:25.247Z,2.30
2022-10-26T12:05:52.189Z,2.35
2022-10-26T12:08:24.767Z,2.42
2022-10-26T12:11:13.702Z,2.13
2022-10-26T12:13:48.765Z,2.30
2022-10-26T12:17:04.547Z,2.10
2022-10-26T12:19:42.336Z,1.90
2022-10-26T12:22:14.217Z,1.85
2022-10-26T12:25:05.856Z,1.60
2022-10-26T12:27:50.871Z,1.95
2022-10-26T12:30:17.121Z,1.63
2022-10-26T12:32:43.907Z,2.15
2022-10-26T12:35:29.082Z,2.15
2022-10-26T12:37:55.671Z,2.00
2022-10-26T12:40:31.297Z,2.25
2022-10-26T12:42:58.565Z,2.00
2022-10-26T12:45:24.991Z,2.47
2022-10-26T12:47:51.507Z,1.67
2022-10-26T12:50:24.443Z,1.40
2022-10-26T12:52:53.969Z,1.73
2022-10-26T12:55:33.457Z,1.70
2022-10-26T12:58:23.910Z,2.13
2022-10-26T13:01:21.543Z,1.67
2022-10-26T13:04:23.066Z,2.78
2022-10-26T13:06:58.405Z,1.75
2022-10-26T13:09:28.853Z,1.90
2022-10-26T13:11:56.615Z,1.95
2022-10-26T13:14:27.370Z,1.83
2022-10-26T13:16:54.061Z,2.20
2022-10-26T13:19:31.200Z,1.85
2022-10-26T13:22:00.893Z,2.58
2022-10-26T13:24:29.494Z,2.05
2022-10-26T13:27:04.910Z,1.65
2022-10-26T13:29:32.125Z,1.65
2022-10-26T13:31:58.936Z,1.73
2022-10-26T13:34:30.940Z,1.75
2022-10-26T13:39:43.654Z,1.60
2022-10-26T13:42:16.253Z,1.70
2022-10-26T13:44:48.383Z,1.80
2022-10-26T13:47:22.227Z,2.13
2022-10-26T13:49:51.187Z,1.45
2022-10-26T13:52:23.752Z,1.40
2022-10-26T13:55:01.913Z,1.50
2022-10-26T13:57:43.664Z,1.52
2022-10-26T14:00:17.056Z,1.10
2022-10-26T14:02:43.690Z,1.27
2022-10-26T14:05:14.945Z,1.30
2022-10-26T14:07:45.438Z,1.13
2022-10-26T14:10:25.147Z,1.30
2022-10-26T14:12:51.874Z,0.93
2022-10-26T14:15:24.163Z,0.80
2022-10-26T14:17:51.920Z,0.90
2022-10-26T14:20:20.058Z,0.98
2022-10-26T14:22:46.424Z,0.82
2022-10-26T14:25:26.601Z,1.15
2022-10-26T14:28:04.670Z,1.63
2022-10-26T14:30:32.447Z,1.13
2022-10-26T14:32:59.227Z,1.15
2022-10-26T14:35:35.933Z,1.38
2022-10-26T14:38:07.280Z,1.02
2022-10-26T14:40:36.750Z,1.10
2022-10-26T14:43:04.788Z,1.20
2022-10-26T14:45:48.034Z,1.48
2022-10-26T14:48:31.314Z,1.00
2022-10-26T14:51:11.617Z,1.05
2022-10-26T14:53:39.919Z,1.08
2022-10-26T14:56:18.494Z,1.00
2022-10-26T14:58:44.910Z,1.02
2022-10-26T15:01:16.209Z,1.30
2022-10-26T15:03:44.296Z,1.13
2022-10-26T15:06:28.928Z,1.25
2022-10-26T15:09:00.094Z,1.40
2022-10-26T15:11:27.536Z,1.40
2022-10-26T15:13:54.818Z,1.00
2022-10-26T15:16:23.422Z,1.17
2022-10-26T15:18:58.571Z,1.42
2022-10-26T15:21:28.153Z,1.35
2022-10-26T15:23:55.802Z,1.25
2022-10-26T15:26:22.216Z,1.50
2022-10-26T15:28:52.689Z,1.17
2022-10-26T15:31:18.967Z,1.42
2022-10-26T15:33:50.987Z,1.15
2022-10-26T15:38:45.471Z,1.17
2022-10-26T15:41:19.366Z,1.42
2022-10-26T15:43:50.034Z,1.50
2022-10-26T15:46:16.735Z,1.48
2022-10-26T15:48:43.395Z,1.40
2022-10-26T15:51:13.510Z,1.38
2022-10-26T15:53:40.061Z,1.60
2022-10-26T15:56:14.595Z,1.85
2022-10-26T15:58:40.955Z,1.58
2022-10-26T16:01:07.457Z,1.55
2022-10-26T16:03:33.853Z,1.40
2022-10-26T16:06:01.664Z,1.48
2022-10-26T16:08:30.981Z,1.75
2022-10-26T16:10:57.599Z,1.70
2022-10-26T16:13:24.237Z,1.88
2022-10-26T16:15:50.575Z,1.90
2022-10-26T16:18:16.943Z,1.40
2022-10-26T16:20:45.649Z,2.05
2022-10-26T16:23:12.218Z,1.45
2022-10-26T16:25:43.691Z,1.83
2022-10-26T16:28:12.685Z,1.83
2022-10-26T16:33:10.430Z,1.98
2022-10-26T16:35:36.809Z,1.85
2022-10-26T16:38:03.223Z,1.88
2022-10-26T16:40:29.598Z,1.88
2022-10-26T16:42:55.952Z,1.73
2022-10-26T16:45:22.502Z,2.00
2022-10-26T16:47:49.393Z,1.65
2022-10-26T16:50:16.081Z,1.95
2022-10-26T16:52:42.425Z,2.47
2022-10-26T16:55:09.149Z,2.10
2022-10-26T16:57:36.042Z,2.38
2022-10-26T17:00:03.310Z,2.00
2022-10-26T17:02:29.762Z,2.45
2022-10-26T17:04:56.292Z,2.35
2022-10-26T17:07:22.644Z,2.45
2022-10-26T17:09:49.014Z,2.38
2022-10-26T17:12:15.464Z,2.00
2022-10-26T17:14:41.894Z,2.80
2022-10-26T17:17:08.279Z,2.22
2022-10-26T17:19:35.837Z,2.38
2022-10-26T17:22:03.845Z,2.70
2022-10-26T17:24:32.784Z,2.08
2022-10-26T17:26:59.377Z,2.15
2022-10-26T17:29:25.965Z,2.00
2022-10-26T17:31:52.320Z,2.10
2022-10-26T17:34:18.680Z,2.13
2022-10-26T17:36:45.049Z,2.22
2022-10-26T17:39:11.406Z,2.10
2022-10-26T17:41:37.968Z,2.35
2022-10-26T17:44:04.418Z,2.45
2022-10-26T17:46:30.932Z,2.20
2022-10-26T17:48:59.085Z,2.70
2022-10-26T17:51:26.655Z,2.75
2022-10-26T17:53:53.700Z,2.72
2022-10-26T17:56:28.870Z,2.70
2022-10-26T17:58:56.834Z,2.33
2022-10-26T18:01:23.854Z,2.92
2022-10-26T18:03:50.924Z,3.50
2022-10-26T18:06:17.551Z,2.70
2022-10-26T18:08:44.923Z,2.72
2022-10-26T18:11:19.070Z,2.55
2022-10-26T18:13:46.991Z,3.10
2022-10-26T18:16:19.216Z,2.95
2022-10-26T18:18:49.775Z,3.08
2022-10-26T18:21:18.031Z,2.50
2022-10-26T18:23:44.411Z,3.00
2022-10-26T18:26:23.177Z,2.83
2022-10-26T18:28:49.739Z,2.80
2022-10-26T18:31:18.555Z,2.38
2022-10-26T18:33:45.291Z,3.97
2022-10-26T18:36:13.866Z,3.53
2022-10-26T18:38:40.383Z,3.00
2022-10-26T18:41:08.149Z,3.13
2022-10-26T18:43:34.578Z,3.33
2022-10-26T18:46:12.660Z,2.72
2022-10-26T18:48:40.856Z,2.90
2022-10-26T18:51:09.344Z,2.30
2022-10-26T18:53:37.596Z,2.30
2022-10-26T18:56:09.632Z,2.80
2022-10-26T18:58:38.112Z,2.90
2022-10-26T19:01:12.361Z,2.60
2022-10-26T19:03:39.690Z,3.00
2022-10-26T19:06:14.487Z,2.53
2022-10-26T19:08:41.672Z,2.88
2022-10-26T19:11:14.055Z,2.80
2022-10-26T19:13:40.808Z,2.75
2022-10-26T19:16:21.976Z,3.13
2022-10-26T19:19:00.019Z,2.30
2022-10-26T19:21:28.159Z,2.60
2022-10-26T19:23:56.652Z,2.45
2022-10-26T19:26:27.300Z,2.38
2022-10-26T19:31:26.210Z,2.42
2022-10-26T19:33:53.718Z,2.55
2022-10-26T19:36:20.070Z,2.35
2022-10-26T19:38:46.407Z,2.80
2022-10-26T19:41:14.837Z,2.63
2022-10-26T19:43:42.013Z,3.15
2022-10-26T19:46:11.197Z,2.70
2022-10-26T19:48:38.218Z,2.80
2022-10-26T19:51:04.939Z,2.45
2022-10-26T19:53:31.371Z,2.92
2022-10-26T19:55:59.027Z,2.88
2022-10-26T19:58:26.653Z,3.10
2022-10-26T20:00:57.016Z,3.50
2022-10-26T20:03:23.395Z,3.03
2022-10-26T20:05:49.833Z,3.00
2022-10-26T20:08:16.215Z,3.03
2022-10-26T20:10:43.822Z,3.10
2022-10-26T20:13:11.399Z,2.88
2022-10-26T20:15:38.324Z,2.92
2022-10-26T20:18:04.847Z,2.90
2022-10-26T20:20:33.344Z,2.75
2022-10-26T20:22:59.875Z,3.83
2022-10-26T20:25:27.162Z,4.70
2022-10-26T20:27:53.630Z,3.63
2022-10-26T20:30:20.085Z,3.00
2022-10-26T20:32:46.453Z,3.00
2022-10-26T20:35:12.825Z,2.92
2022-10-26T20:37:39.536Z,2.75
2022-10-26T20:40:06.526Z,3.10
2022-10-26T20:42:33.077Z,3.40
2022-10-26T20:45:29.741Z,2.40
2022-10-26T20:47:56.827Z,2.60
2022-10-26T20:50:24.857Z,3.20
2022-10-26T20:53:03.476Z,2.72
2022-10-26T20:55:41.957Z,2.85
2022-10-26T20:58:19.331Z,3.25
2022-10-26T21:00:55.586Z,3.30
2022-10-26T21:03:22.079Z,3.35
2022-10-26T21:05:48.575Z,3.60
2022-10-26T21:08:14.938Z,3.53
2022-10-26T21:10:41.307Z,3.85
2022-10-26T21:13:07.724Z,3.40
2022-10-26T21:15:37.401Z,3.65
2022-10-26T21:18:03.783Z,3.40
2022-10-26T21:20:30.955Z,3.15
2022-10-26T21:22:57.304Z,4.10
2022-10-26T21:25:23.683Z,3.95
2022-10-26T21:27:57.507Z,3.70
2022-10-26T21:30:24.844Z,3.78
2022-10-26T21:32:52.405Z,4.28
2022-10-26T21:35:18.992Z,3.35
2022-10-26T21:37:45.811Z,4.07
2022-10-26T21:40:13.069Z,3.50
2022-10-26T21:42:39.522Z,3.85
2022-10-26T21:45:06.640Z,3.92
2022-10-26T21:47:33.025Z,4.00
2022-10-26T21:49:59.461Z,4.13
2022-10-26T21:52:26.181Z,4.00
2022-10-26T21:54:52.519Z,3.67
2022-10-26T21:57:19.024Z,4.38
2022-10-26T21:59:45.358Z,4.00
2022-10-26T22:02:11.792Z,4.38
2022-10-26T22:04:38.584Z,4.07
2022-10-26T22:07:04.976Z,4.97
2022-10-26T22:09:32.801Z,4.30
2022-10-26T22:12:00.973Z,5.30
2022-10-26T22:14:27.314Z,4.80
2022-10-26T22:16:53.674Z,5.25
2022-10-26T22:19:20.034Z,4.43
2022-10-26T22:21:46.388Z,4.63
2022-10-26T22:24:12.815Z,5.03
2022-10-26T22:26:39.240Z,4.25
2022-10-26T22:29:05.969Z,4.78
2022-10-26T22:31:34.893Z,4.53
2022-10-26T22:34:07.323Z,5.80
2022-10-26T22:36:34.942Z,4.72
2022-10-26T22:39:01.356Z,5.10
2022-10-26T22:41:27.811Z,4.70
2022-10-26T22:43:54.276Z,4.90
2022-10-26T22:46:22.472Z,4.53
2022-10-26T22:48:53.464Z,4.30
2022-10-26T22:51:21.073Z,4.05
2022-10-26T22:53:54.781Z,4.60
2022-10-26T22:56:23.122Z,4.30
2022-10-26T22:58:51.839Z,4.10
2022-10-26T23:01:20.657Z,4.30
2022-10-26T23:03:47.120Z,4.10
2022-10-26T23:06:16.488Z,4.20
2022-10-26T23:08:43.216Z,3.88
2022-10-26T23:11:12.372Z,4.35
2022-10-26T23:13:38.796Z,3.55
2022-10-26T23:16:10.811Z,3.78
2022-10-26T23:18:37.535Z,3.60
2022-10-26T23:21:04.783Z,4.70
2022-10-26T23:23:31.189Z,5.38
2022-10-26T23:26:04.780Z,3.90
2022-10-26T23:28:31.160Z,3.90
2022-10-26T23:30:57.528Z,4.65
2022-10-26T23:33:24.048Z,3.90
2022-10-26T23:35:51.352Z,4.32
2022-10-26T23:38:17.992Z,4.07
2022-10-26T23:40:57.436Z,4.38
2022-10-26T23:43:24.562Z,4.18
2022-10-26T23:45:51.380Z,4.28
2022-10-26T23:48:19.132Z,3.83
2022-10-26T23:50:47.361Z,4.10
2022-10-26T23:53:14.401Z,4.50
2022-10-26T23:55:40.761Z,4.30
2022-10-26T23:58:07.107Z,4.60
